createdAt,value
2022-07-29T00:00:06.351Z,43.82
2022-07-29T00:02:33.255Z,43.96
2022-07-29T00:05:00.251Z,43.71
2022-07-29T00:07:27.799Z,43.42
2022-07-29T00:09:54.523Z,43.39
2022-07-29T00:12:26.169Z,43.44
2022-07-29T00:14:55.435Z,43.15
2022-07-29T00:17:22.713Z,42.98
2022-07-29T00:19:49.657Z,43.09
2022-07-29T00:22:16.437Z,43.19
2022-07-29T00:24:43.085Z,42.94
2022-07-29T00:27:09.742Z,43.01
2022-07-29T00:29:36.406Z,42.50
2022-07-29T00:32:04.034Z,42.57
2022-07-29T00:34:49.922Z,42.38
2022-07-29T00:37:16.668Z,41.95
2022-07-29T00:39:43.816Z,42.50
2022-07-29T00:42:11.024Z,42.32
2022-07-29T00:44:41.672Z,41.79
2022-07-29T00:47:09.546Z,41.62
2022-07-29T00:49:37.297Z,41.46
2022-07-29T00:52:06.677Z,41.45
2022-07-29T00:54:34.040Z,41.71
2022-07-29T00:57:01.235Z,41.05
2022-07-29T00:59:35.064Z,41.04
2022-07-29T01:02:04.117Z,41.02
2022-07-29T01:04:32.421Z,41.14
2022-07-29T01:07:01.663Z,40.93
2022-07-29T01:09:42.203Z,40.66
2022-07-29T01:12:20.030Z,40.60
2022-07-29T01:14:49.742Z,40.96
2022-07-29T01:17:26.498Z,40.72
2022-07-29T01:20:08.336Z,40.51
2022-07-29T01:22:34.961Z,40.37
2022-07-29T01:25:38.788Z,40.02
2022-07-29T01:28:08.014Z,40.18
2022-07-29T01:30:39.805Z,39.76
2022-07-29T01:33:35.013Z,40.14
2022-07-29T01:36:10.483Z,40.36
2022-07-29T01:38:40.682Z,40.01
2022-07-29T01:41:13.706Z,40.37
2022-07-29T01:44:00.345Z,40.61
2022-07-29T01:46:39.163Z,40.82
2022-07-29T01:49:17.867Z,40.47
2022-07-29T01:51:52.709Z,40.31
2022-07-29T01:54:37.923Z,40.32
2022-07-29T01:57:06.183Z,40.83
2022-07-29T01:59:36.076Z,40.50
2022-07-29T02:02:03.480Z,40.57
2022-07-29T02:04:33.279Z,40.51
2022-07-29T02:07:03.677Z,40.55
2022-07-29T02:09:33.506Z,40.33
2022-07-29T02:12:03.729Z,40.29
2022-07-29T02:14:35.305Z,40.62
2022-07-29T02:17:04.150Z,40.69
2022-07-29T02:19:34.561Z,40.27
2022-07-29T02:22:02.815Z,40.34
2022-07-29T02:24:31.730Z,40.40
2022-07-29T02:27:00.583Z,40.81
2022-07-29T02:29:29.624Z,40.85
2022-07-29T02:31:58.329Z,40.48
2022-07-29T02:34:26.414Z,40.43
2022-07-29T02:36:55.238Z,40.54
2022-07-29T02:39:23.073Z,40.96
2022-07-29T02:41:52.767Z,40.92
2022-07-29T02:44:20.777Z,40.92
2022-07-29T02:46:56.811Z,40.60
2022-07-29T02:49:39.680Z,41.23
2022-07-29T02:52:38.881Z,41.01
2022-07-29T02:55:18.677Z,41.08
2022-07-29T02:58:07.319Z,40.85
2022-07-29T03:00:38.574Z,40.95
2022-07-29T03:03:14.232Z,41.13
2022-07-29T03:05:41.322Z,40.69
2022-07-29T03:08:13.519Z,40.96
2022-07-29T03:10:46.639Z,41.15
2022-07-29T03:13:14.361Z,41.08
2022-07-29T03:15:44.741Z,41.08
2022-07-29T03:18:11.849Z,40.76
2022-07-29T03:20:40.281Z,40.95
2022-07-29T03:23:07.741Z,40.73
2022-07-29T03:25:34.745Z,40.63
2022-07-29T03:28:01.471Z,41.07
2022-07-29T03:30:31.743Z,41.08
2022-07-29T03:32:59.032Z,40.87
2022-07-29T03:35:25.866Z,40.85
2022-07-29T03:37:52.549Z,41.04
2022-07-29T03:40:52.589Z,40.90
2022-07-29T03:43:20.418Z,40.91
2022-07-29T03:45:51.605Z,41.33
2022-07-29T03:48:23.119Z,41.30
2022-07-29T03:50:51.736Z,41.51
2022-07-29T03:53:18.794Z,41.45
2022-07-29T03:55:49.626Z,41.33
2022-07-29T03:58:18.220Z,41.93
2022-07-29T04:00:46.018Z,41.83
2022-07-29T04:03:13.731Z,41.76
2022-07-29T04:05:42.752Z,41.38
2022-07-29T04:08:09.463Z,41.73
2022-07-29T04:10:36.558Z,41.48
2022-07-29T04:13:03.466Z,41.96
2022-07-29T04:15:31.189Z,41.92
2022-07-29T04:17:58.504Z,42.04
2022-07-29T04:20:25.311Z,41.71
2022-07-29T04:22:52.014Z,41.56
2022-07-29T04:25:18.685Z,41.70
2022-07-29T04:28:03.739Z,41.60
2022-07-29T04:30:31.652Z,41.22
2022-07-29T04:32:58.425Z,41.58
2022-07-29T04:35:25.537Z,41.61
2022-07-29T04:37:52.205Z,41.50
2022-07-29T04:40:19.763Z,41.09
2022-07-29T04:42:47.821Z,41.37
2022-07-29T04:45:15.161Z,41.01
2022-07-29T04:47:43.270Z,41.13
2022-07-29T04:50:11.252Z,41.18
2022-07-29T04:52:41.006Z,40.96
2022-07-29T04:55:07.922Z,41.08
2022-07-29T04:57:34.654Z,41.58
2022-07-29T05:00:02.059Z,41.13
2022-07-29T05:02:28.768Z,41.46
2022-07-29T05:04:55.534Z,41.36
2022-07-29T05:07:22.276Z,41.19
2022-07-29T05:09:49.243Z,41.22
2022-07-29T05:12:16.088Z,41.72
2022-07-29T05:14:42.770Z,41.53
2022-07-29T05:17:09.443Z,41.56
2022-07-29T05:19:39.297Z,41.45
2022-07-29T05:22:06.684Z,41.47
2022-07-29T05:24:33.421Z,41.75
2022-07-29T05:27:00.373Z,41.60
2022-07-29T05:29:44.241Z,41.27
2022-07-29T05:32:13.015Z,41.58
2022-07-29T05:34:50.712Z,41.65
2022-07-29T05:37:20.830Z,41.34
2022-07-29T05:39:50.575Z,41.53
2022-07-29T05:42:23.395Z,41.54
2022-07-29T05:44:50.041Z,41.52
2022-07-29T05:47:17.082Z,41.68
2022-07-29T05:49:47.123Z,41.88
2022-07-29T05:52:14.322Z,41.81
2022-07-29T05:54:41.496Z,41.27
2022-07-29T05:57:08.212Z,41.59
2022-07-29T05:59:38.525Z,41.90
2022-07-29T06:02:06.272Z,41.85
2022-07-29T06:04:34.825Z,41.75
2022-07-29T06:07:02.997Z,42.28
2022-07-29T06:09:30.093Z,42.05
2022-07-29T06:11:56.964Z,41.92
2022-07-29T06:14:23.626Z,41.57
2022-07-29T06:16:50.427Z,41.65
2022-07-29T06:19:17.173Z,41.29
2022-07-29T06:21:44.656Z,41.64
2022-07-29T06:24:16.787Z,41.30
2022-07-29T06:26:48.672Z,41.24
2022-07-29T06:29:15.537Z,41.40
2022-07-29T06:31:42.317Z,41.29
2022-07-29T06:34:09.020Z,40.83
2022-07-29T06:36:37.884Z,41.49
2022-07-29T06:39:07.837Z,40.89
2022-07-29T06:41:34.902Z,40.69
2022-07-29T06:44:01.584Z,40.54
2022-07-29T06:46:28.788Z,40.42
2022-07-29T06:48:55.639Z,40.37
2022-07-29T06:51:23.815Z,40.03
2022-07-29T06:53:59.501Z,40.31
2022-07-29T06:56:39.084Z,40.27
2022-07-29T06:59:08.335Z,39.67
2022-07-29T07:01:35.990Z,39.65
2022-07-29T07:04:03.355Z,39.58
2022-07-29T07:06:30.203Z,39.68
2022-07-29T07:08:58.853Z,39.02
2022-07-29T07:11:25.600Z,39.18
2022-07-29T07:13:52.307Z,38.21
2022-07-29T07:16:19.105Z,38.77
2022-07-29T07:18:46.337Z,38.78
2022-07-29T07:21:18.779Z,38.56
2022-07-29T07:23:46.264Z,38.43
2022-07-29T07:26:13.197Z,38.39
2022-07-29T07:28:39.840Z,38.81
2022-07-29T07:31:07.193Z,39.02
2022-07-29T07:33:33.886Z,38.79
2022-07-29T07:36:00.647Z,39.01
2022-07-29T07:38:27.766Z,39.18
2022-07-29T07:40:54.481Z,38.16
2022-07-29T07:43:21.180Z,38.76
2022-07-29T07:45:47.908Z,38.41
2022-07-29T07:48:14.604Z,38.27
2022-07-29T07:50:41.328Z,38.68
2022-07-29T07:53:08.256Z,38.34
2022-07-29T07:56:00.381Z,38.39
2022-07-29T07:58:25.097Z,37.55
2022-07-29T08:00:51.881Z,37.78
2022-07-29T08:03:18.651Z,37.88
2022-07-29T08:05:45.424Z,36.99
2022-07-29T08:08:12.208Z,36.97
2022-07-29T08:10:54.188Z,37.18
2022-07-29T08:13:22.967Z,37.22
2022-07-29T08:15:58.722Z,36.93
2022-07-29T08:18:26.526Z,36.87
2022-07-29T08:20:53.265Z,36.81
2022-07-29T08:23:23.843Z,36.54
2022-07-29T08:25:52.248Z,36.42
2022-07-29T08:28:25.658Z,36.73
2022-07-29T08:30:52.842Z,36.49
2022-07-29T08:33:19.582Z,36.40
2022-07-29T08:35:46.740Z,36.39
2022-07-29T08:38:13.430Z,36.00
2022-07-29T08:40:40.633Z,36.36
2022-07-29T08:43:09.357Z,36.02
2022-07-29T08:45:56.286Z,35.71
2022-07-29T08:48:24.491Z,35.61
2022-07-29T08:50:57.325Z,35.35
2022-07-29T08:53:28.092Z,35.18
2022-07-29T08:55:55.732Z,34.75
2022-07-29T08:58:24.935Z,34.23
2022-07-29T09:00:55.567Z,34.02
2022-07-29T09:03:25.650Z,33.36
2022-07-29T09:05:53.523Z,32.90
2022-07-29T09:08:21.217Z,32.61
2022-07-29T09:10:48.331Z,32.25
2022-07-29T09:13:15.055Z,31.24
2022-07-29T09:15:41.846Z,30.28
2022-07-29T09:18:08.571Z,29.90
2022-07-29T09:21:12.446Z,29.21
2022-07-29T09:23:40.800Z,28.44
2022-07-29T09:26:07.459Z,27.81
2022-07-29T09:28:34.630Z,27.50
2022-07-29T09:31:01.316Z,27.81
2022-07-29T09:33:41.441Z,27.31
2022-07-29T09:36:09.725Z,26.88
2022-07-29T09:38:38.069Z,25.89
2022-07-29T09:41:06.911Z,24.39
2022-07-29T09:43:34.802Z,23.60
2022-07-29T09:46:12.510Z,22.59
2022-07-29T09:48:39.430Z,22.04
2022-07-29T09:51:07.573Z,21.65
2022-07-29T09:53:38.838Z,21.12
2022-07-29T09:56:06.458Z,20.58
2022-07-29T09:58:36.640Z,20.91
2022-07-29T10:01:04.385Z,21.22
2022-07-29T10:03:31.903Z,21.49
2022-07-29T10:06:14.519Z,21.56
2022-07-29T10:08:42.993Z,22.38
2022-07-29T10:11:17.083Z,22.41
2022-07-29T10:13:45.671Z,23.17
2022-07-29T10:16:13.958Z,23.04
2022-07-29T10:18:42.200Z,22.90
2022-07-29T10:21:09.173Z,22.40
2022-07-29T10:23:46.101Z,22.52
2022-07-29T10:26:14.198Z,22.87
2022-07-29T10:28:40.949Z,22.33
2022-07-29T10:31:15.384Z,22.90
2022-07-29T10:34:26.691Z,22.46
2022-07-29T10:37:19.649Z,22.98
2022-07-29T10:40:23.257Z,22.09
2022-07-29T10:42:54.734Z,20.71
2022-07-29T10:45:22.578Z,20.24
2022-07-29T10:47:49.712Z,19.15
2022-07-29T10:50:17.369Z,18.91
2022-07-29T10:53:00.416Z,18.62
2022-07-29T10:55:49.848Z,17.43
2022-07-29T10:58:24.967Z,17.41
2022-07-29T11:00:53.413Z,17.24
2022-07-29T11:03:52.430Z,17.47
2022-07-29T11:06:26.243Z,17.73
2022-07-29T11:09:17.097Z,17.66
2022-07-29T11:11:47.638Z,17.85
2022-07-29T11:14:52.726Z,17.94
2022-07-29T11:17:19.780Z,17.25
2022-07-29T11:19:52.053Z,17.97
2022-07-29T11:22:36.449Z,19.50
2022-07-29T11:25:17.653Z,19.68
2022-07-29T11:27:46.247Z,20.37
2022-07-29T11:30:14.964Z,20.33
2022-07-29T11:32:48.675Z,20.23
2022-07-29T11:35:38.045Z,22.13
2022-07-29T11:38:28.761Z,22.18
2022-07-29T11:41:25.415Z,21.62
2022-07-29T11:43:56.041Z,21.96
2022-07-29T11:46:53.989Z,22.28
2022-07-29T11:49:32.197Z,22.37
2022-07-29T11:52:03.019Z,22.45
2022-07-29T11:54:57.193Z,22.31
2022-07-29T11:57:22.458Z,21.43
2022-07-29T11:59:49.716Z,20.38
2022-07-29T12:02:36.565Z,20.72
2022-07-29T12:05:10.886Z,21.19
2022-07-29T12:07:41.159Z,20.71
2022-07-29T12:10:19.752Z,20.56
2022-07-29T12:12:52.687Z,21.57
2022-07-29T12:15:22.414Z,20.60
2022-07-29T12:17:49.570Z,21.58
2022-07-29T12:20:25.392Z,21.87
2022-07-29T12:22:54.624Z,22.22
2022-07-29T12:25:39.033Z,22.94
2022-07-29T12:28:14.197Z,22.62
2022-07-29T12:30:51.761Z,23.11
2022-07-29T12:33:27.555Z,23.38
2022-07-29T12:36:10.309Z,23.20
2022-07-29T12:38:41.822Z,22.82
2022-07-29T12:41:09.590Z,22.78
2022-07-29T12:43:36.289Z,22.91
2022-07-29T12:46:14.607Z,22.93
2022-07-29T12:48:43.724Z,24.00
2022-07-29T12:51:12.865Z,23.94
2022-07-29T12:53:39.914Z,23.90
2022-07-29T12:56:26.705Z,23.66
2022-07-29T12:58:55.040Z,24.22
2022-07-29T13:01:22.226Z,23.51
2022-07-29T13:03:56.782Z,24.27
2022-07-29T13:06:36.654Z,23.34
2022-07-29T13:09:08.311Z,22.84
2022-07-29T13:11:58.719Z,22.85
2022-07-29T13:14:37.146Z,22.38
2022-07-29T13:17:05.838Z,22.28
2022-07-29T13:19:36.838Z,21.35
2022-07-29T13:22:03.858Z,20.58
2022-07-29T13:24:30.587Z,19.12
2022-07-29T13:26:57.287Z,18.87
2022-07-29T13:29:25.763Z,18.36
2022-07-29T13:31:55.700Z,18.12
2022-07-29T13:34:23.384Z,18.86
2022-07-29T13:36:50.019Z,18.12
2022-07-29T13:39:16.714Z,19.07
2022-07-29T13:41:43.567Z,19.10
2022-07-29T13:44:10.525Z,19.29
2022-07-29T13:46:37.169Z,19.61
2022-07-29T13:49:06.871Z,20.04
2022-07-29T13:51:33.642Z,19.78
2022-07-29T13:54:00.450Z,20.11
2022-07-29T13:56:27.619Z,19.00
2022-07-29T13:58:54.270Z,19.42
2022-07-29T14:01:21.295Z,18.90
2022-07-29T14:03:48.068Z,19.38
2022-07-29T14:06:14.741Z,19.20
2022-07-29T14:08:42.032Z,19.98
2022-07-29T14:11:08.702Z,19.71
2022-07-29T14:13:35.442Z,19.96
2022-07-29T14:16:02.413Z,20.48
2022-07-29T14:18:29.140Z,19.96
2022-07-29T14:20:55.983Z,20.38
2022-07-29T14:23:23.214Z,19.98
2022-07-29T14:25:49.938Z,20.53
2022-07-29T14:28:17.074Z,20.12
2022-07-29T14:30:44.228Z,20.01
2022-07-29T14:33:11.306Z,20.96
2022-07-29T14:35:38.042Z,21.37
2022-07-29T14:38:04.698Z,22.05
2022-07-29T14:40:31.415Z,22.64
2022-07-29T14:42:58.087Z,22.34
2022-07-29T14:45:25.025Z,22.53
2022-07-29T14:47:51.843Z,23.15
2022-07-29T14:50:31.835Z,23.73
2022-07-29T14:52:59.054Z,23.73
2022-07-29T14:55:26.029Z,24.75
2022-07-29T14:57:56.384Z,24.46
2022-07-29T15:00:27.837Z,24.74
2022-07-29T15:03:02.799Z,25.32
2022-07-29T15:05:30.791Z,24.61
2022-07-29T15:07:57.705Z,25.78
2022-07-29T15:10:24.816Z,26.23
2022-07-29T15:12:51.664Z,25.77
2022-07-29T15:15:18.383Z,26.28
2022-07-29T15:17:45.293Z,26.51
2022-07-29T15:20:12.924Z,26.52
2022-07-29T15:22:40.293Z,27.32
2022-07-29T15:25:07.473Z,26.74
2022-07-29T15:27:34.772Z,27.63
2022-07-29T15:30:01.512Z,28.04
2022-07-29T15:32:28.196Z,27.72
2022-07-29T15:34:54.857Z,27.52
2022-07-29T15:37:21.535Z,28.04
2022-07-29T15:39:48.769Z,28.62
2022-07-29T15:42:15.443Z,29.06
2022-07-29T15:44:44.566Z,28.69
2022-07-29T15:47:11.820Z,29.30
2022-07-29T15:49:48.148Z,29.72
2022-07-29T15:52:25.701Z,29.77
2022-07-29T15:55:03.430Z,29.92
2022-07-29T15:57:30.482Z,30.42
2022-07-29T15:59:57.359Z,30.56
2022-07-29T16:02:27.735Z,30.50
2022-07-29T16:04:54.824Z,31.25
2022-07-29T16:07:21.988Z,31.06
2022-07-29T16:09:53.054Z,31.25
2022-07-29T16:12:21.261Z,31.17
2022-07-29T16:14:49.608Z,31.72
2022-07-29T16:17:16.695Z,31.30
2022-07-29T16:19:44.373Z,31.36
2022-07-29T16:22:12.431Z,31.48
2022-07-29T16:24:40.877Z,32.12
2022-07-29T16:27:07.957Z,31.85
2022-07-29T16:29:35.004Z,32.31
2022-07-29T16:32:01.937Z,31.86
2022-07-29T16:34:28.759Z,32.41
2022-07-29T16:36:55.437Z,32.92
2022-07-29T16:39:22.193Z,34.16
2022-07-29T16:41:50.224Z,35.22
2022-07-29T16:44:16.873Z,36.39
2022-07-29T16:46:45.421Z,37.06
2022-07-29T16:49:19.466Z,37.97
2022-07-29T16:51:48.004Z,38.66
2022-07-29T16:54:14.779Z,38.86
2022-07-29T16:56:41.853Z,39.73
2022-07-29T16:59:08.568Z,39.95
2022-07-29T17:01:35.317Z,40.10
2022-07-29T17:04:08.350Z,40.88
2022-07-29T17:06:39.921Z,41.46
2022-07-29T17:09:08.867Z,41.76
2022-07-29T17:11:53.799Z,41.82
2022-07-29T17:14:24.075Z,41.80
2022-07-29T17:17:00.627Z,42.25
2022-07-29T17:19:31.846Z,42.47
2022-07-29T17:22:05.003Z,42.26
2022-07-29T17:24:36.072Z,42.87
2022-07-29T17:27:02.776Z,42.97
2022-07-29T17:29:29.473Z,42.45
2022-07-29T17:31:57.796Z,42.60
2022-07-29T17:34:24.488Z,42.95
2022-07-29T17:36:51.151Z,43.13
2022-07-29T17:39:17.925Z,42.62
2022-07-29T17:41:47.164Z,43.00
2022-07-29T17:44:13.999Z,43.13
2022-07-29T17:46:40.946Z,43.30
2022-07-29T17:49:07.753Z,43.06
2022-07-29T17:51:34.514Z,43.02
2022-07-29T17:54:01.260Z,43.26
2022-07-29T17:56:28.007Z,43.51
2022-07-29T17:58:54.936Z,43.72
2022-07-29T18:01:23.792Z,43.71
2022-07-29T18:03:50.963Z,44.02
2022-07-29T18:06:17.672Z,43.73
2022-07-29T18:08:47.639Z,43.94
2022-07-29T18:11:15.514Z,44.76
2022-07-29T18:13:42.469Z,45.25
2022-07-29T18:16:09.839Z,45.99
2022-07-29T18:18:36.598Z,45.51
2022-07-29T18:21:03.722Z,46.25
2022-07-29T18:23:30.499Z,45.90
2022-07-29T18:25:57.303Z,46.20
2022-07-29T18:28:23.998Z,46.66
2022-07-29T18:30:51.347Z,47.46
2022-07-29T18:33:21.711Z,46.86
2022-07-29T18:35:50.796Z,47.50
2022-07-29T18:38:17.951Z,47.50
2022-07-29T18:40:46.107Z,47.81
2022-07-29T18:43:13.750Z,48.36
2022-07-29T18:45:42.514Z,48.25
2022-07-29T18:48:12.960Z,48.35
2022-07-29T18:50:40.582Z,48.25
2022-07-29T18:53:07.458Z,48.47
2022-07-29T18:55:35.209Z,48.59
2022-07-29T18:58:02.023Z,48.64
2022-07-29T19:00:28.761Z,48.53
2022-07-29T19:02:56.202Z,49.08
2022-07-29T19:05:23.756Z,49.36
2022-07-29T19:07:50.744Z,49.36
2022-07-29T19:10:17.824Z,49.38
2022-07-29T19:12:44.564Z,49.31
2022-07-29T19:15:11.479Z,49.52
2022-07-29T19:17:39.801Z,49.99
2022-07-29T19:20:08.088Z,49.93
2022-07-29T19:22:35.117Z,49.93
2022-07-29T19:25:01.901Z,50.38
2022-07-29T19:27:28.686Z,50.30
2022-07-29T19:29:59.245Z,50.07
2022-07-29T19:32:26.517Z,50.26
2022-07-29T19:35:12.081Z,50.67
2022-07-29T19:37:38.797Z,50.57
2022-07-29T19:40:06.983Z,51.07
2022-07-29T19:42:34.025Z,50.87
2022-07-29T19:45:01.205Z,50.98
2022-07-29T19:47:27.969Z,51.76
2022-07-29T19:49:54.634Z,51.48
2022-07-29T19:52:21.385Z,52.04
2022-07-29T19:54:48.251Z,51.83
2022-07-29T19:57:15.038Z,51.82
2022-07-29T19:59:41.732Z,51.96
2022-07-29T20:02:11.162Z,52.19
2022-07-29T20:04:38.748Z,51.91
2022-07-29T20:07:07.033Z,52.32
2022-07-29T20:09:33.819Z,52.21
2022-07-29T20:12:00.885Z,52.52
2022-07-29T20:14:27.791Z,52.50
2022-07-29T20:16:54.570Z,52.51
2022-07-29T20:19:21.662Z,52.68
2022-07-29T20:21:48.412Z,52.91
2022-07-29T20:24:15.092Z,53.13
2022-07-29T20:26:41.961Z,53.53
2022-07-29T20:29:09.233Z,53.48
2022-07-29T20:31:36.019Z,53.58
2022-07-29T20:34:02.854Z,53.45
2022-07-29T20:36:29.547Z,53.91
2022-07-29T20:38:57.125Z,53.69
2022-07-29T20:41:23.782Z,53.59
2022-07-29T20:43:50.476Z,53.86
2022-07-29T20:46:18.776Z,53.99
2022-07-29T20:48:47.068Z,53.90
2022-07-29T20:51:14.490Z,53.87
2022-07-29T20:53:41.744Z,54.12
2022-07-29T20:56:08.680Z,53.56
2022-07-29T20:58:36.598Z,53.69
2022-07-29T21:01:04.004Z,53.96
2022-07-29T21:03:30.786Z,53.67
2022-07-29T21:05:57.508Z,53.68
2022-07-29T21:08:24.600Z,53.77
2022-07-29T21:10:51.422Z,53.42
2022-07-29T21:13:18.734Z,53.38
2022-07-29T21:15:49.283Z,53.33
2022-07-29T21:18:33.004Z,53.65
2022-07-29T21:21:01.373Z,53.27
2022-07-29T21:23:28.420Z,53.39
2022-07-29T21:25:55.460Z,53.13
2022-07-29T21:28:29.530Z,53.21
2022-07-29T21:31:02.383Z,52.88
2022-07-29T21:33:31.093Z,53.12
2022-07-29T21:36:42.365Z,53.20
2022-07-29T21:38:47.362Z,53.20
2022-07-29T21:41:15.501Z,53.50
2022-07-29T21:43:42.593Z,53.49
2022-07-29T21:46:09.867Z,53.35
2022-07-29T21:48:39.109Z,53.23
2022-07-29T21:51:08.513Z,53.17
2022-07-29T21:53:35.269Z,53.36
2022-07-29T21:56:02.248Z,53.52
2022-07-29T21:58:28.920Z,53.55
2022-07-29T22:00:55.630Z,53.32
2022-07-29T22:03:22.355Z,53.62
2022-07-29T22:05:49.130Z,53.33
2022-07-29T22:08:15.807Z,53.74
2022-07-29T22:10:42.655Z,53.31
2022-07-29T22:13:09.393Z,53.25
2022-07-29T22:15:36.231Z,53.15
2022-07-29T22:18:03.320Z,53.16
2022-07-29T22:20:30.107Z,52.90
2022-07-29T22:22:57.315Z,53.17
2022-07-29T22:25:24.022Z,52.67
2022-07-29T22:27:50.710Z,52.52
2022-07-29T22:30:17.613Z,52.53
2022-07-29T22:32:44.544Z,52.30
2022-07-29T22:35:11.329Z,52.35
2022-07-29T22:37:38.152Z,52.22
2022-07-29T22:40:05.728Z,52.51
2022-07-29T22:42:33.187Z,52.71
2022-07-29T22:44:59.908Z,52.57
2022-07-29T22:47:38.785Z,52.50
2022-07-29T22:50:13.947Z,52.62
2022-07-29T22:52:40.670Z,52.30
2022-07-29T22:55:07.668Z,52.59
2022-07-29T22:57:34.299Z,52.48
2022-07-29T23:00:02.554Z,52.61
2022-07-29T23:02:29.577Z,52.36
2022-07-29T23:04:56.396Z,52.54
2022-07-29T23:07:23.670Z,52.41
2022-07-29T23:09:50.412Z,52.24
2022-07-29T23:12:17.705Z,52.41
2022-07-29T23:14:44.364Z,51.88
2022-07-29T23:17:11.286Z,52.30
2022-07-29T23:19:38.017Z,51.88
2022-07-29T23:22:05.135Z,51.89
2022-07-29T23:24:31.778Z,51.73
2022-07-29T23:26:58.749Z,51.55
2022-07-29T23:29:27.261Z,51.82
2022-07-29T23:31:53.885Z,51.79
2022-07-29T23:34:20.553Z,51.78
2022-07-29T23:36:47.268Z,51.86
2022-07-29T23:39:14.021Z,52.00
2022-07-29T23:41:40.991Z,51.96
2022-07-29T23:44:07.910Z,51.89
2022-07-29T23:46:34.650Z,51.64
2022-07-29T23:49:01.418Z,51.41
2022-07-29T23:51:29.277Z,51.58
2022-07-29T23:53:56.185Z,51.42
2022-07-29T23:56:22.963Z,51.21
2022-07-29T23:58:49.662Z,51.15
